Ban Gong Hu — BOEY — position and weather

sailwx.info

Track history (hours):
 
Tides and Currents Weather Stations Pressure Air Temp Water Temp Dewpoint Dewpoint Depression Visibility Wind Speed Wind Dir Waves Ship Positions

Ban Gong Hu

Last reported at 2017-Dec-04 10:06 UTC. Time now 2017-Dec-14 02:38 UTC.
Position N 01°13' E 103°34'.
Warning: this ship's position is 9 days out of date.

Length 229 m; draft 8.5 m.

Type: Tanker. MMSI: 412371000.

Date/timePositionNaut miles runAvg speedWind from/ knotsBaromVisibWave heightAir tempDewpointWater temp
2017-Dec-04 10:06N 01°13' E 103°34'0 0.0
2017-Dec-04 09:57N 01°13' E 103°34'0 0.0
2017-Dec-04 02:38N 01°13' E 103°35'0 0.4
2017-Dec-04 02:29N 01°13' E 103°35'0 0.1
2017-Dec-04 02:00N 01°13' E 103°34'0 0.1
2017-Dec-04 01:31N 01°13' E 103°34'1 1.1
2017-Dec-04 01:01N 01°14' E 103°34'1 0.7
2017-Dec-04 00:14N 01°14' E 103°35'0 0.0
2017-Dec-03 23:53N 01°14' E 103°35'0 0.0
2017-Dec-03 18:20N 01°14' E 103°35'0 0.0
2017-Dec-03 14:54N 01°14' E 103°35'0 0.7
2017-Dec-03 14:30N 01°14' E 103°35'7 5.0
2017-Dec-03 13:10N 01°10' E 103°40'2 9.9
2017-Dec-03 12:56N 01°09' E 103°42'4 9.0
2017-Dec-03 12:29N 01°10' E 103°46'511.1
2017-Dec-03 12:00N 01°12' E 103°51'510.6
2017-Dec-03 11:30N 01°14' E 103°56'510.5
2017-Dec-03 10:59N 01°16' E 104°01'  
2017-Nov-28 02:43N 22°02' E 121°13'310.7
2017-Nov-28 02:29N 22°05' E 121°14'610.6
2017-Nov-28 01:56N 22°09' E 121°18'410.2
2017-Nov-28 01:30N 22°13' E 121°20'1210.7
2017-Nov-28 00:23N 22°23' E 121°28'1311.0
2017-Nov-27 23:10N 22°34' E 121°36'1410.2
2017-Nov-27 21:49N 22°47' E 121°42'410.9
2017-Nov-27 21:28N 22°50' E 121°44'510.4
2017-Nov-27 20:59N 22°55' E 121°46'611.2
2017-Nov-27 20:29N 22°60' E 121°48'1212.2
2017-Nov-27 19:32N 23°11' E 121°53'011.5
2017-Nov-27 19:30N 23°11' E 121°53'4412.3
2017-Nov-27 15:56N 23°52' E 122°10'512.7
2017-Nov-27 15:30N 23°57' E 122°12'612.6
2017-Nov-27 15:00N 24°03' E 122°15'612.8
2017-Nov-27 14:30N 24°09' E 122°17'612.6
2017-Nov-27 14:00N 24°15' E 122°20'612.6
2017-Nov-27 13:30N 24°21' E 122°22'713.0
2017-Nov-27 13:00N 24°27' E 122°25'612.6
2017-Nov-27 12:30N 24°33' E 122°27'612.8
2017-Nov-27 12:00N 24°39' E 122°30'612.8
2017-Nov-27 11:30N 24°44' E 122°33'612.8
2017-Nov-27 11:00N 24°50' E 122°35'612.6
2017-Nov-27 10:30N 24°56' E 122°37'612.4
2017-Nov-27 10:00N 25°02' E 122°40'612.5
2017-Nov-27 09:30N 25°08' E 122°43'612.1
2017-Nov-27 09:00N 25°14' E 122°45'712.0
2017-Nov-27 08:28N 25°20' E 122°47'  
Track history (hours):
 
Tides and Currents Weather Stations Pressure Air Temp Water Temp Dewpoint Dewpoint Depression Visibility Wind Speed Wind Dir Waves Ship Positions

Ban Gong Hu

Last reported at 2017-Dec-04 10:06 UTC. Time now 2017-Dec-14 02:38 UTC.
Position N 01°13' E 103°34'.
Warning: this ship's position is 9 days out of date.

Length 229 m; draft 8.5 m.

Type: Tanker. MMSI: 412371000.

Date/timePositionNaut miles runAvg speedWind from/ knotsBaromVisibWave heightAir tempDewpointWater temp
2017-Dec-04 10:06N 01°13' E 103°34'0 0.0
2017-Dec-04 09:57N 01°13' E 103°34'0 0.0
2017-Dec-04 02:38N 01°13' E 103°35'0 0.4
2017-Dec-04 02:29N 01°13' E 103°35'0 0.1
2017-Dec-04 02:00N 01°13' E 103°34'0 0.1
2017-Dec-04 01:31N 01°13' E 103°34'1 1.1
2017-Dec-04 01:01N 01°14' E 103°34'1 0.7
2017-Dec-04 00:14N 01°14' E 103°35'0 0.0
2017-Dec-03 23:53N 01°14' E 103°35'0 0.0
2017-Dec-03 18:20N 01°14' E 103°35'0 0.0
2017-Dec-03 14:54N 01°14' E 103°35'0 0.7
2017-Dec-03 14:30N 01°14' E 103°35'7 5.0
2017-Dec-03 13:10N 01°10' E 103°40'2 9.9
2017-Dec-03 12:56N 01°09' E 103°42'4 9.0
2017-Dec-03 12:29N 01°10' E 103°46'511.1
2017-Dec-03 12:00N 01°12' E 103°51'510.6
2017-Dec-03 11:30N 01°14' E 103°56'510.5
2017-Dec-03 10:59N 01°16' E 104°01'  
2017-Nov-28 02:43N 22°02' E 121°13'310.7
2017-Nov-28 02:29N 22°05' E 121°14'610.6
2017-Nov-28 01:56N 22°09' E 121°18'410.2
2017-Nov-28 01:30N 22°13' E 121°20'1210.7
2017-Nov-28 00:23N 22°23' E 121°28'1311.0
2017-Nov-27 23:10N 22°34' E 121°36'1410.2
2017-Nov-27 21:49N 22°47' E 121°42'410.9
2017-Nov-27 21:28N 22°50' E 121°44'510.4
2017-Nov-27 20:59N 22°55' E 121°46'611.2
2017-Nov-27 20:29N 22°60' E 121°48'1212.2
2017-Nov-27 19:32N 23°11' E 121°53'011.5
2017-Nov-27 19:30N 23°11' E 121°53'4412.3
2017-Nov-27 15:56N 23°52' E 122°10'512.7
2017-Nov-27 15:30N 23°57' E 122°12'612.6
2017-Nov-27 15:00N 24°03' E 122°15'612.8
2017-Nov-27 14:30N 24°09' E 122°17'612.6
2017-Nov-27 14:00N 24°15' E 122°20'612.6
2017-Nov-27 13:30N 24°21' E 122°22'713.0
2017-Nov-27 13:00N 24°27' E 122°25'612.6
2017-Nov-27 12:30N 24°33' E 122°27'612.8
2017-Nov-27 12:00N 24°39' E 122°30'612.8
2017-Nov-27 11:30N 24°44' E 122°33'612.8
2017-Nov-27 11:00N 24°50' E 122°35'612.6
2017-Nov-27 10:30N 24°56' E 122°37'612.4
2017-Nov-27 10:00N 25°02' E 122°40'612.5
2017-Nov-27 09:30N 25°08' E 122°43'612.1
2017-Nov-27 09:00N 25°14' E 122°45'712.0
2017-Nov-27 08:28N 25°20' E 122°47'  

Dump ship's entire track history